Capri, Italy

11:55 AM CEST on April 24, 2017 (GMT +0200)
Priora | | Change Station

Elev 774 ft 40.62 °N, 14.36 °E | Updated 7 seconds ago

Clear
Clear
63.7 °F
Feels Like 63.7 °F
N
0.0
Wind Variable Wind from NW
Gusts 0.0 mph

Today
High -- | Low -- °F
--% Chance of Precip.
Yesterday
High -- | Low -- °F
Precip. -- in
Pressure 30.15 in
Visibility 6.2 miles
Clouds Few 2500 ft
Mostly Cloudy 4000 ft
Dew Point 52 °F
Humidity 65%
Rainfall 0.00 in
Snow Depth Not available.
6:11 AM 7:51 PM
Waning Crescent, 6% visible
METAR LIRN 240920Z VRB02KT 9999 FEW025 BKN040 17/08 Q1021 NOSIG
Pressure 30.15 in
Visibility 6.2 miles
Clouds Few 2500 ft
Mostly Cloudy 4000 ft
Dew Point 52 °F
Humidity 65%
Rainfall 0.00 in
Snow Depth Not available.
6:11 AM 7:51 PM
Waning Crescent, 6% visible
METAR LIRN 240920Z VRB02KT 9999 FEW025 BKN040 17/08 Q1021 NOSIG

Get Severe Weather Alerts

Thanks for signing up!

Be on the lookout for a verification email in your inbox.

You'll start receiving the daily forecast at 8 AM.

×

10-Day Weather Forecast

×

Almanac

Astronomy

Apr. 24, 2017 Rise Set
Actual Time
Civil Twilight
Nautical Twilight
Astronomical Twilight
Moon
Length of Visible Light
Length of Day
Tomorrow will be .
, % of the Moon is Illuminated

Today's Extremes

Country Highs Country Lows

Community

WunderPhotos

WunderBlog® & News

Nearby

Air Quality

  Air Quality AQ Index Pollutant
Not available.

Snow Depth

Station Depth Elevation

Earthquake Activity

City Distance Mag. Time & Date
Minimum magnitude displayed is 2.5.

Coastal Water Temperatures

Place Temperature

Stations

Nearby Weather Stations

Station Location Temp. Windchill Dew Point Humidity Wind Precip. Elev Updated Type